Time;durP1;ratioP1;P1;durP2;ratioP2;P2;SDS_P1;SDS_P2;PMS_P1;PMS_P2;Temp;Humidity;BMP_temperature;BMP_pressure;BME280_temperature;BME280_humidity;BME280_pressure;Samples;Min_cycle;Max_cycle;Signal;HPM_P1;HPM_P2
2021/07/12 00:00:21;;;;;;;35.50;24.10;;;;;;;;;;5092263;28;20042;-64
2021/07/12 00:02:47;;;;;;;36.60;24.35;;;;;;;;;;5088926;28;20046;-64
2021/07/12 00:05:14;;;;;;;36.20;24.67;;;;;;;;;;5092336;28;20023;-64
2021/07/12 00:07:41;;;;;;;40.72;24.90;;;;;;;;;;5109606;28;20114;-65
2021/07/12 00:10:08;;;;;;;38.67;25.75;;;;;;;;;;5110227;28;20028;-64
2021/07/12 00:12:34;;;;;;;32.95;24.25;;;;;;;;;;5091114;28;20027;-65
2021/07/12 00:15:00;;;;;;;29.98;22.02;;;;;;;;;;5108748;28;20027;-65
2021/07/12 00:17:27;;;;;;;32.85;23.38;;;;;;;;;;5110257;28;20085;-65
2021/07/12 00:19:53;;;;;;;33.58;24.00;;;;;;;;;;5110584;28;20028;-65
2021/07/12 00:22:19;;;;;;;32.83;23.67;;;;;;;;;;5092162;28;20578;-65
2021/07/12 00:24:45;;;;;;;31.92;22.38;;;;;;;;;;5111368;27;20449;-65
2021/07/12 00:27:11;;;;;;;33.67;24.10;;;;;;;;;;5106208;28;20038;-64
2021/07/12 00:29:37;;;;;;;36.70;24.73;;;;;;;;;;5109010;28;20479;-65
2021/07/12 00:32:03;;;;;;;39.42;28.02;;;;;;;;;;5109386;28;20491;-64
2021/07/12 00:34:29;;;;;;;38.45;26.17;;;;;;;;;;5089679;28;20012;-65
2021/07/12 00:36:55;;;;;;;40.15;28.65;;;;;;;;;;5110077;28;20023;-64
2021/07/12 00:39:22;;;;;;;40.97;28.27;;;;;;;;;;5092320;28;20027;-64
2021/07/12 00:41:48;;;;;;;51.30;32.47;;;;;;;;;;5109521;28;20027;-64
2021/07/12 00:44:14;;;;;;;55.70;33.53;;;;;;;;;;5109163;28;20069;-64
2021/07/12 00:46:40;;;;;;;46.75;30.35;;;;;;;;;;5092149;28;20027;-64
2021/07/12 00:49:06;;;;;;;47.80;30.95;;;;;;;;;;5110291;28;20102;-65
2021/07/12 00:51:32;;;;;;;46.88;31.05;;;;;;;;;;5090296;28;21562;-65
2021/07/12 00:53:59;;;;;;;48.60;31.17;;;;;;;;;;5107464;28;20030;-64
2021/07/12 00:56:25;;;;;;;49.92;32.92;;;;;;;;;;5090015;28;20050;-64
2021/07/12 00:58:51;;;;;;;59.33;34.95;;;;;;;;;;5108848;28;20080;-65
2021/07/12 01:01:17;;;;;;;88.05;48.50;;;;;;;;;;5091278;28;20657;-64
2021/07/12 01:03:43;;;;;;;63.75;36.97;;;;;;;;;;5109056;28;20059;-64
2021/07/12 01:06:09;;;;;;;62.90;35.95;;;;;;;;;;5109971;28;20035;-64
2021/07/12 01:08:36;;;;;;;62.58;38.22;;;;;;;;;;5107694;28;20026;-64
2021/07/12 01:11:10;;;;;;;66.55;39.92;;;;;;;;;;5109528;28;20521;-65
2021/07/12 01:13:42;;;;;;;62.88;38.58;;;;;;;;;;5106973;28;20043;-65
2021/07/12 01:16:08;;;;;;;69.65;40.75;;;;;;;;;;5091430;28;20016;-65
2021/07/12 01:18:40;;;;;;;73.03;41.97;;;;;;;;;;5109332;28;20024;-65
2021/07/12 01:21:09;;;;;;;70.78;42.85;;;;;;;;;;5107824;28;20557;-64
2021/07/12 01:23:53;;;;;;;69.57;40.95;;;;;;;;;;5105516;28;20028;-65
2021/07/12 01:26:25;;;;;;;63.60;36.83;;;;;;;;;;5106964;28;20095;-65
2021/07/12 01:29:02;;;;;;;81.03;43.55;;;;;;;;;;5108804;28;20396;-65
2021/07/12 01:31:39;;;;;;;66.07;38.55;;;;;;;;;;5090552;28;20376;-65
2021/07/12 01:34:13;;;;;;;62.03;37.85;;;;;;;;;;5106153;28;20039;-64
2021/07/12 01:36:39;;;;;;;68.43;39.58;;;;;;;;;;5109669;28;20032;-65
2021/07/12 01:39:06;;;;;;;62.60;37.25;;;;;;;;;;5105951;28;20023;-65
2021/07/12 01:41:51;;;;;;;68.13;38.63;;;;;;;;;;5108117;28;20402;-65
2021/07/12 01:44:23;;;;;;;62.00;37.33;;;;;;;;;;5108489;28;20027;-65
2021/07/12 01:46:53;;;;;;;78.47;45.72;;;;;;;;;;5109836;28;20031;-65
2021/07/12 01:49:23;;;;;;;78.32;43.65;;;;;;;;;;5105565;28;20110;-64
2021/07/12 01:52:01;;;;;;;82.07;47.08;;;;;;;;;;5109938;28;20051;-64
2021/07/12 01:54:39;;;;;;;76.70;43.38;;;;;;;;;;5105695;28;20069;-65
2021/07/12 01:57:07;;;;;;;79.50;46.33;;;;;;;;;;5108107;28;20028;-65
2021/07/12 01:59:41;;;;;;;82.95;47.90;;;;;;;;;;5090547;28;20035;-64
2021/07/12 02:02:08;;;;;;;72.47;41.65;;;;;;;;;;5090332;28;20023;-65
2021/07/12 02:04:34;;;;;;;68.78;40.58;;;;;;;;;;5108621;28;20560;-65
2021/07/12 02:07:01;;;;;;;72.68;43.45;;;;;;;;;;5090907;28;20069;-64
2021/07/12 02:09:27;;;;;;;70.22;42.83;;;;;;;;;;5090499;28;20088;-65
2021/07/12 02:11:56;;;;;;;67.78;40.22;;;;;;;;;;5090778;28;20031;-64
2021/07/12 02:14:23;;;;;;;72.07;42.58;;;;;;;;;;5108398;28;20068;-65
2021/07/12 02:16:50;;;;;;;87.47;49.63;;;;;;;;;;5108769;28;20116;-64
2021/07/12 02:19:16;;;;;;;76.60;45.78;;;;;;;;;;5109952;28;20035;-65
2021/07/12 02:21:43;;;;;;;86.25;47.42;;;;;;;;;;5112271;28;20026;-65
2021/07/12 02:24:09;;;;;;;89.32;48.92;;;;;;;;;;5111022;28;20399;-64
2021/07/12 02:26:36;;;;;;;95.28;53.50;;;;;;;;;;5124536;27;20026;-64
2021/07/12 02:29:03;;;;;;;83.30;49.80;;;;;;;;;;5111879;28;20040;-65
2021/07/12 02:31:31;;;;;;;90.68;48.97;;;;;;;;;;5093887;28;20084;-65
2021/07/12 02:33:59;;;;;;;88.63;47.97;;;;;;;;;;5092388;28;20028;-65
2021/07/12 02:36:26;;;;;;;86.88;51.75;;;;;;;;;;5111887;28;20020;-65
2021/07/12 02:38:55;;;;;;;95.18;53.10;;;;;;;;;;5093630;28;20030;-65
2021/07/12 02:41:21;;;;;;;95.95;52.55;;;;;;;;;;5111556;28;20559;-65
2021/07/12 02:43:47;;;;;;;90.60;51.63;;;;;;;;;;5111204;28;20027;-65
2021/07/12 02:46:14;;;;;;;87.20;48.85;;;;;;;;;;5112157;28;20020;-65
2021/07/12 02:48:40;;;;;;;107.85;57.90;;;;;;;;;;5112260;28;20027;-64
2021/07/12 02:51:09;;;;;;;103.20;58.03;;;;;;;;;;5112676;28;20055;-65
2021/07/12 02:53:37;;;;;;;92.75;50.33;;;;;;;;;;5110175;28;20019;-65
2021/07/12 02:56:03;;;;;;;96.13;54.28;;;;;;;;;;5113565;28;20031;-65
2021/07/12 02:58:30;;;;;;;87.85;49.70;;;;;;;;;;5110581;28;20043;-65
2021/07/12 03:00:56;;;;;;;107.63;59.90;;;;;;;;;;5112417;28;20051;-65
2021/07/12 03:03:22;;;;;;;108.35;58.30;;;;;;;;;;5110494;28;20038;-65
2021/07/12 03:05:52;;;;;;;109.13;58.25;;;;;;;;;;5093576;28;20526;-65
2021/07/12 03:08:20;;;;;;;116.03;60.53;;;;;;;;;;5112412;28;20023;-64
2021/07/12 03:10:52;;;;;;;105.85;58.75;;;;;;;;;;5111333;28;20048;-64
2021/07/12 03:13:18;;;;;;;;;;;;;;;;;;5092785;28;20026;-65
2021/07/12 03:15:47;;;;;;;105.35;55.60;;;;;;;;;;5113361;28;19998;-65
2021/07/12 03:18:35;;;;;;;105.15;57.35;;;;;;;;;;5092259;28;20080;-65
2021/07/12 03:21:03;;;;;;;100.55;53.83;;;;;;;;;;5111353;28;20058;-65
2021/07/12 03:23:31;;;;;;;93.50;52.88;;;;;;;;;;5110945;28;20019;-65
2021/07/12 03:25:59;;;;;;;101.05;57.45;;;;;;;;;;5094378;28;20055;-65
2021/07/12 03:28:25;;;;;;;94.80;53.10;;;;;;;;;;5110148;28;20039;-65
2021/07/12 03:30:52;;;;;;;91.18;53.45;;;;;;;;;;5107600;28;20027;-64
2021/07/12 03:33:20;;;;;;;101.07;58.75;;;;;;;;;;5109973;28;20106;-65
2021/07/12 03:35:47;;;;;;;95.70;52.28;;;;;;;;;;5111524;28;20035;-65
2021/07/12 03:38:17;;;;;;;83.65;50.33;;;;;;;;;;5110476;28;20033;-65
2021/07/12 03:40:44;;;;;;;84.60;51.10;;;;;;;;;;5112064;28;20036;-65
2021/07/12 03:43:11;;;;;;;99.35;55.90;;;;;;;;;;5091805;28;20145;-65
2021/07/12 03:45:41;;;;;;;103.18;57.45;;;;;;;;;;5111910;28;20024;-65
2021/07/12 03:48:07;;;;;;;84.55;50.63;;;;;;;;;;5111354;28;20023;-65
2021/07/12 03:50:34;;;;;;;86.68;50.20;;;;;;;;;;5111813;28;20035;-65
2021/07/12 03:53:03;;;;;;;90.80;50.30;;;;;;;;;;5092272;28;20418;-64
2021/07/12 03:55:31;;;;;;;86.07;49.25;;;;;;;;;;5111429;28;20023;-65
2021/07/12 03:57:58;;;;;;;83.00;48.40;;;;;;;;;;5111291;28;20023;-65
2021/07/12 04:00:25;;;;;;;82.93;46.00;;;;;;;;;;5110958;28;20473;-65
2021/07/12 04:02:51;;;;;;;76.80;43.10;;;;;;;;;;5109078;28;20031;-65
2021/07/12 04:05:23;;;;;;;90.68;53.53;;;;;;;;;;5110891;28;20035;-65
2021/07/12 04:07:49;;;;;;;;;;;;;;;;;;5093518;28;20556;-65
2021/07/12 04:10:17;;;;;;;79.60;47.03;;;;;;;;;;5110723;28;19943;-65
2021/07/12 04:12:43;;;;;;;88.50;51.13;;;;;;;;;;5108649;28;20024;-64
2021/07/12 04:15:10;;;;;;;96.68;53.83;;;;;;;;;;5110819;28;20028;-65
2021/07/12 04:17:36;;;;;;;87.95;53.03;;;;;;;;;;5110448;28;20011;-65
2021/07/12 04:20:04;;;;;;;89.53;48.67;;;;;;;;;;5111070;28;20063;-65
2021/07/12 04:22:30;;;;;;;84.22;50.80;;;;;;;;;;5109771;28;20088;-65
2021/07/12 04:24:56;;;;;;;81.25;49.33;;;;;;;;;;5110490;28;20114;-65
2021/07/12 04:27:22;;;;;;;86.65;49.50;;;;;;;;;;5111220;28;20028;-65
2021/07/12 04:29:48;;;;;;;75.65;44.67;;;;;;;;;;5109524;28;20030;-65
2021/07/12 04:32:14;;;;;;;76.07;43.55;;;;;;;;;;5109664;28;20012;-65
2021/07/12 04:34:40;;;;;;;77.57;46.00;;;;;;;;;;5110562;28;20028;-65
2021/07/12 04:37:07;;;;;;;73.82;43.05;;;;;;;;;;5110768;28;20084;-65
2021/07/12 04:39:33;;;;;;;65.78;42.97;;;;;;;;;;5094367;28;20032;-65
2021/07/12 04:41:59;;;;;;;64.60;41.50;;;;;;;;;;5108634;28;20534;-65
2021/07/12 04:44:25;;;;;;;73.30;41.38;;;;;;;;;;5089985;28;20114;-65
2021/07/12 04:46:51;;;;;;;60.30;38.17;;;;;;;;;;5109369;28;20054;-64
2021/07/12 04:49:17;;;;;;;62.78;37.88;;;;;;;;;;5107372;28;20114;-65
2021/07/12 04:51:44;;;;;;;58.17;35.88;;;;;;;;;;5108269;28;20100;-65
2021/07/12 04:54:10;;;;;;;59.20;34.90;;;;;;;;;;5089784;28;20494;-65
2021/07/12 04:56:36;;;;;;;54.53;34.20;;;;;;;;;;5090661;28;20041;-64
2021/07/12 04:59:09;;;;;;;51.60;30.60;;;;;;;;;;5106630;28;20077;-65
2021/07/12 05:01:35;;;;;;;50.10;32.33;;;;;;;;;;5109431;28;20030;-65
2021/07/12 05:04:02;;;;;;;49.38;30.40;;;;;;;;;;5108365;28;20032;-65
2021/07/12 05:06:28;;;;;;;50.00;31.33;;;;;;;;;;5092073;28;20404;-65
2021/07/12 05:08:55;;;;;;;49.28;30.02;;;;;;;;;;5105116;28;20039;-65
2021/07/12 05:11:22;;;;;;;47.03;30.05;;;;;;;;;;5109636;28;20043;-65
2021/07/12 05:13:48;;;;;;;44.00;28.58;;;;;;;;;;5089494;28;20088;-65
2021/07/12 05:16:14;;;;;;;40.92;27.23;;;;;;;;;;5109302;28;20079;-65
2021/07/12 05:18:40;;;;;;;39.38;28.15;;;;;;;;;;5106086;28;20031;-65
2021/07/12 05:21:06;;;;;;;38.85;25.45;;;;;;;;;;5110871;28;20023;-65
2021/07/12 05:23:33;;;;;;;38.45;25.92;;;;;;;;;;5107686;28;20388;-65
2021/07/12 05:25:59;;;;;;;45.13;25.70;;;;;;;;;;5107907;28;20016;-64
2021/07/12 05:28:25;;;;;;;38.03;25.38;;;;;;;;;;5107479;28;20028;-65
2021/07/12 05:30:51;;;;;;;47.25;29.60;;;;;;;;;;5108236;28;20695;-65
2021/07/12 05:33:17;;;;;;;39.08;27.08;;;;;;;;;;5085724;28;20040;-65
2021/07/12 05:35:43;;;;;;;39.03;27.17;;;;;;;;;;5106640;28;20112;-64
2021/07/12 05:38:09;;;;;;;35.70;24.90;;;;;;;;;;5109578;28;20035;-65
2021/07/12 05:40:36;;;;;;;37.63;25.35;;;;;;;;;;5084538;28;20039;-65
2021/07/12 05:43:02;;;;;;;44.22;27.55;;;;;;;;;;5089392;28;20100;-65
2021/07/12 05:45:28;;;;;;;38.88;26.25;;;;;;;;;;5108348;28;20020;-65
2021/07/12 05:47:54;;;;;;;35.28;25.67;;;;;;;;;;5109197;28;20453;-65
2021/07/12 05:50:21;;;;;;;37.63;25.75;;;;;;;;;;5104575;28;20449;-65
2021/07/12 05:52:47;;;;;;;37.45;25.27;;;;;;;;;;5106381;28;20581;-65
2021/07/12 05:55:13;;;;;;;42.65;29.08;;;;;;;;;;5110745;28;20027;-65
2021/07/12 05:57:39;;;;;;;42.55;29.35;;;;;;;;;;5108340;28;20119;-65
2021/07/12 06:00:07;;;;;;;38.25;27.52;;;;;;;;;;5105365;28;20023;-65
2021/07/12 06:02:33;;;;;;;35.08;25.58;;;;;;;;;;5100859;28;20024;-65
2021/07/12 06:04:59;;;;;;;40.42;28.02;;;;;;;;;;5108484;28;20023;-64
2021/07/12 06:07:25;;;;;;;39.25;27.15;;;;;;;;;;5111094;28;20110;-64
2021/07/12 06:09:51;;;;;;;39.47;26.40;;;;;;;;;;5112784;28;20031;-65
2021/07/12 06:12:17;;;;;;;34.28;24.73;;;;;;;;;;5112621;28;20027;-64
2021/07/12 06:14:43;;;;;;;35.35;26.15;;;;;;;;;;5110663;28;20023;-64
2021/07/12 06:17:09;;;;;;;33.08;24.15;;;;;;;;;;5112769;27;20023;-64
2021/07/12 06:19:35;;;;;;;29.15;21.63;;;;;;;;;;5094061;28;20019;-64
2021/07/12 06:22:01;;;;;;;35.13;23.70;;;;;;;;;;5111887;28;20031;-64
2021/07/12 06:24:27;;;;;;;28.80;22.80;;;;;;;;;;5110592;28;20621;-64
2021/07/12 06:26:53;;;;;;;30.50;21.60;;;;;;;;;;5094021;28;20122;-65
2021/07/12 06:29:21;;;;;;;26.92;19.77;;;;;;;;;;5112376;28;20023;-64
2021/07/12 06:31:47;;;;;;;30.27;20.58;;;;;;;;;;5113032;28;20540;-64
2021/07/12 06:34:13;;;;;;;28.90;20.52;;;;;;;;;;5093209;28;20061;-65
2021/07/12 06:36:39;;;;;;;28.13;19.83;;;;;;;;;;5113302;28;20080;-64
2021/07/12 06:39:06;;;;;;;26.33;19.88;;;;;;;;;;5112955;28;20498;-64
2021/07/12 06:41:32;;;;;;;24.23;20.25;;;;;;;;;;5107882;28;20035;-64
2021/07/12 06:43:58;;;;;;;37.22;22.15;;;;;;;;;;5110918;28;20024;-64
2021/07/12 06:46:24;;;;;;;30.42;19.92;;;;;;;;;;5111171;28;20031;-64
2021/07/12 06:48:50;;;;;;;23.08;18.58;;;;;;;;;;5112311;28;20036;-64
2021/07/12 06:51:17;;;;;;;26.92;18.27;;;;;;;;;;5112263;28;20044;-64
2021/07/12 06:53:43;;;;;;;25.90;17.88;;;;;;;;;;5111726;28;20023;-64
2021/07/12 06:56:09;;;;;;;27.15;18.13;;;;;;;;;;5111674;28;20551;-64
2021/07/12 06:58:35;;;;;;;25.50;19.38;;;;;;;;;;5112446;27;20506;-64
2021/07/12 07:01:01;;;;;;;23.73;17.88;;;;;;;;;;5112530;28;20024;-64
2021/07/12 07:03:27;;;;;;;24.00;17.17;;;;;;;;;;5111300;28;20526;-64
2021/07/12 07:05:53;;;;;;;27.02;18.88;;;;;;;;;;5111673;28;20027;-64
2021/07/12 07:08:19;;;;;;;24.85;17.00;;;;;;;;;;5112461;28;20016;-64
2021/07/12 07:10:45;;;;;;;25.65;17.48;;;;;;;;;;5112142;28;20032;-64
2021/07/12 07:13:11;;;;;;;23.42;18.67;;;;;;;;;;5110820;28;20034;-64
2021/07/12 07:15:37;;;;;;;25.08;18.85;;;;;;;;;;5096366;28;20024;-64
2021/07/12 07:18:03;;;;;;;30.45;19.85;;;;;;;;;;5111881;28;20028;-64
2021/07/12 07:20:29;;;;;;;24.55;17.75;;;;;;;;;;5111850;28;20043;-64
2021/07/12 07:22:55;;;;;;;26.15;20.10;;;;;;;;;;5109932;28;20024;-64
2021/07/12 07:25:21;;;;;;;28.92;20.40;;;;;;;;;;5111790;28;20032;-64
2021/07/12 07:27:47;;;;;;;30.65;21.88;;;;;;;;;;5112227;28;20034;-65
2021/07/12 07:30:14;;;;;;;30.45;21.92;;;;;;;;;;5110567;28;20034;-64
2021/07/12 07:32:40;;;;;;;27.27;21.90;;;;;;;;;;5110459;27;20016;-64
2021/07/12 07:35:07;;;;;;;27.23;21.48;;;;;;;;;;5092238;28;20483;-64
2021/07/12 07:37:33;;;;;;;28.15;21.30;;;;;;;;;;5111859;28;20023;-64
2021/07/12 07:39:59;;;;;;;26.58;18.88;;;;;;;;;;5111346;28;20023;-64
2021/07/12 07:42:25;;;;;;;27.05;19.58;;;;;;;;;;5110848;28;20034;-65
2021/07/12 07:44:52;;;;;;;26.25;19.25;;;;;;;;;;5111136;28;20102;-64
2021/07/12 07:47:18;;;;;;;32.10;21.77;;;;;;;;;;5093210;28;20122;-64
2021/07/12 07:49:44;;;;;;;30.20;21.88;;;;;;;;;;5110407;28;20031;-65
2021/07/12 07:52:11;;;;;;;32.33;21.83;;;;;;;;;;5110919;28;20038;-65
2021/07/12 07:54:37;;;;;;;30.20;24.17;;;;;;;;;;5092535;28;20023;-64
2021/07/12 07:57:03;;;;;;;38.55;25.15;;;;;;;;;;5093552;28;20487;-64
2021/07/12 07:59:29;;;;;;;34.15;23.83;;;;;;;;;;5111274;28;20020;-64
2021/07/12 08:01:55;;;;;;;36.35;23.60;;;;;;;;;;5092095;28;20039;-64
2021/07/12 08:04:21;;;;;;;37.13;24.08;;;;;;;;;;5110146;28;20024;-64
2021/07/12 08:06:47;;;;;;;27.65;20.52;;;;;;;;;;5112894;27;20047;-64
2021/07/12 08:09:13;;;;;;;34.53;22.73;;;;;;;;;;5111266;28;20031;-64
2021/07/12 08:11:40;;;;;;;32.40;24.83;;;;;;;;;;5110199;28;20085;-64
2021/07/12 08:14:06;;;;;;;32.28;26.08;;;;;;;;;;5109629;28;20038;-64
2021/07/12 08:16:32;;;;;;;32.20;25.35;;;;;;;;;;5111128;27;20035;-64
2021/07/12 08:18:58;;;;;;;34.55;23.63;;;;;;;;;;5111126;28;20072;-64
2021/07/12 08:21:25;;;;;;;34.65;25.17;;;;;;;;;;5091637;28;20038;-64
2021/07/12 08:23:51;;;;;;;35.45;24.48;;;;;;;;;;5111804;27;20046;-64
2021/07/12 08:26:17;;;;;;;31.00;23.50;;;;;;;;;;5108621;28;20534;-64
2021/07/12 08:28:43;;;;;;;30.13;21.95;;;;;;;;;;5111032;28;20019;-64
2021/07/12 08:31:11;;;;;;;33.75;23.67;;;;;;;;;;5091849;28;20015;-64
2021/07/12 08:33:37;;;;;;;33.85;24.30;;;;;;;;;;5108855;28;20123;-64
2021/07/12 08:36:04;;;;;;;31.60;23.75;;;;;;;;;;5110778;28;20023;-64
2021/07/12 08:38:30;;;;;;;32.83;23.73;;;;;;;;;;5110517;28;20108;-64
2021/07/12 08:40:57;;;;;;;28.55;22.48;;;;;;;;;;5110878;27;20031;-64
2021/07/12 08:43:24;;;;;;;30.67;23.00;;;;;;;;;;5107248;28;20396;-64
2021/07/12 08:45:50;;;;;;;31.17;25.45;;;;;;;;;;5109861;28;20019;-63
2021/07/12 08:48:17;;;;;;;32.20;24.80;;;;;;;;;;5108650;28;20035;-64
2021/07/12 08:50:45;;;;;;;33.63;24.45;;;;;;;;;;5091273;28;20027;-64
2021/07/12 08:53:12;;;;;;;34.22;24.95;;;;;;;;;;5109242;28;20035;-64
2021/07/12 08:55:38;;;;;;;33.10;24.40;;;;;;;;;;5107689;28;20031;-64
2021/07/12 08:58:07;;;;;;;30.13;22.02;;;;;;;;;;5113068;27;20106;-64
2021/07/12 09:00:45;;;;;;;31.33;23.45;;;;;;;;;;5109071;28;20023;-64
2021/07/12 09:03:18;;;;;;;30.05;22.38;;;;;;;;;;5088279;28;20027;-64
2021/07/12 09:06:02;;;;;;;31.25;23.65;;;;;;;;;;5108683;28;20492;-64
2021/07/12 09:08:45;;;;;;;33.22;22.42;;;;;;;;;;5110447;28;20030;-64
2021/07/12 09:11:11;;;;;;;35.88;24.77;;;;;;;;;;5107091;28;20024;-64
2021/07/12 09:13:51;;;;;;;30.23;23.45;;;;;;;;;;5107355;28;20019;-64
2021/07/12 09:16:35;;;;;;;36.42;27.63;;;;;;;;;;5107054;28;20114;-64
2021/07/12 09:19:24;;;;;;;32.47;24.90;;;;;;;;;;5109853;28;20026;-64
2021/07/12 09:21:56;;;;;;;33.10;23.33;;;;;;;;;;5096334;28;20042;-64
2021/07/12 09:24:33;;;;;;;31.30;23.50;;;;;;;;;;5107246;28;20027;-64
2021/07/12 09:27:05;;;;;;;35.70;24.25;;;;;;;;;;5092216;28;20036;-64
2021/07/12 09:29:34;;;;;;;33.75;25.25;;;;;;;;;;5111876;28;20043;-64
2021/07/12 09:32:00;;;;;;;36.08;26.45;;;;;;;;;;5096604;28;20027;-64
2021/07/12 09:34:26;;;;;;;28.65;21.30;;;;;;;;;;5111187;28;20019;-64
2021/07/12 09:36:53;;;;;;;29.02;23.33;;;;;;;;;;5113647;28;20069;-64
2021/07/12 09:39:19;;;;;;;27.83;21.33;;;;;;;;;;5112506;28;20019;-64
2021/07/12 09:41:49;;;;;;;30.48;22.88;;;;;;;;;;5114559;28;20047;-64
2021/07/12 09:44:17;;;;;;;25.85;20.80;;;;;;;;;;5111090;28;20027;-64
2021/07/12 09:46:43;;;;;;;27.98;20.67;;;;;;;;;;5114469;28;20104;-64
2021/07/12 09:49:11;;;;;;;22.77;18.95;;;;;;;;;;5115590;28;20031;-64
2021/07/12 09:51:38;;;;;;;26.50;19.65;;;;;;;;;;5114212;28;20047;-64
2021/07/12 09:54:19;;;;;;;27.02;20.10;;;;;;;;;;5111471;28;20024;-64
2021/07/12 09:56:45;;;;;;;28.05;20.58;;;;;;;;;;5095234;28;20538;-64
2021/07/12 09:59:13;;;;;;;25.77;22.02;;;;;;;;;;5107777;28;20024;-64
2021/07/12 10:01:41;;;;;;;27.40;21.42;;;;;;;;;;5107157;28;20031;-64
2021/07/12 10:04:08;;;;;;;26.13;18.48;;;;;;;;;;5111589;28;20122;-64
2021/07/12 10:06:35;;;;;;;24.20;18.15;;;;;;;;;;5113673;28;20038;-64
2021/07/12 10:09:02;;;;;;;26.92;19.77;;;;;;;;;;5114418;28;20442;-64
2021/07/12 10:11:28;;;;;;;25.98;18.30;;;;;;;;;;5095532;28;20026;-64
2021/07/12 10:13:56;;;;;;;22.95;18.50;;;;;;;;;;5110849;28;20031;-64
2021/07/12 10:16:22;;;;;;;28.17;20.92;;;;;;;;;;5111421;28;20035;-64
2021/07/12 10:18:48;;;;;;;28.52;20.30;;;;;;;;;;5114071;28;20399;-64
2021/07/12 10:21:15;;;;;;;24.73;17.73;;;;;;;;;;5113444;28;20024;-65
2021/07/12 10:23:41;;;;;;;20.75;16.67;;;;;;;;;;5111315;28;20016;-64
2021/07/12 10:26:07;;;;;;;22.10;16.90;;;;;;;;;;5114084;28;20024;-64
2021/07/12 10:28:40;;;;;;;22.33;17.08;;;;;;;;;;5113646;28;20111;-64
2021/07/12 10:31:20;;;;;;;22.33;17.00;;;;;;;;;;5113163;28;20487;-64
2021/07/12 10:33:46;;;;;;;23.13;16.35;;;;;;;;;;5111268;28;20039;-64
2021/07/12 10:36:12;;;;;;;22.90;17.52;;;;;;;;;;5094784;28;20070;-64
2021/07/12 10:38:43;;;;;;;20.65;15.98;;;;;;;;;;5094818;28;20039;-64
2021/07/12 10:41:23;;;;;;;20.50;15.32;;;;;;;;;;5094006;28;20080;-64
2021/07/12 10:43:50;;;;;;;18.90;12.88;;;;;;;;;;5098878;28;20099;-64
2021/07/12 10:46:28;;;;;;;19.83;15.50;;;;;;;;;;5111122;28;20022;-64
2021/07/12 10:49:05;;;;;;;18.63;14.18;;;;;;;;;;5103940;27;20103;-63
2021/07/12 10:51:35;;;;;;;22.00;14.48;;;;;;;;;;5106146;28;20039;-64
2021/07/12 10:54:02;;;;;;;18.00;12.95;;;;;;;;;;5110522;28;20047;-64
2021/07/12 10:56:40;;;;;;;17.15;13.57;;;;;;;;;;5113193;28;20027;-64
2021/07/12 10:59:07;;;;;;;16.50;11.23;;;;;;;;;;5113558;28;20058;-64
2021/07/12 11:01:37;;;;;;;17.48;11.30;;;;;;;;;;5112173;28;20150;-64
2021/07/12 11:04:03;;;;;;;16.48;12.55;;;;;;;;;;5110469;28;20027;-64
2021/07/12 11:06:49;;;;;;;17.50;13.82;;;;;;;;;;5113235;28;20031;-64
2021/07/12 11:09:15;;;;;;;13.50;10.27;;;;;;;;;;5113112;28;20035;-64
2021/07/12 11:11:41;;;;;;;14.25;11.27;;;;;;;;;;5112318;28;20323;-64
2021/07/12 11:14:08;;;;;;;17.30;11.77;;;;;;;;;;5109336;28;20023;-64
2021/07/12 11:16:41;;;;;;;17.40;11.00;;;;;;;;;;5111958;28;20407;-64
2021/07/12 11:19:31;;;;;;;14.70;11.02;;;;;;;;;;5112583;28;20024;-64
2021/07/12 11:22:15;;;;;;;16.45;11.10;;;;;;;;;;5110238;28;20027;-64
2021/07/12 11:25:01;;;;;;;14.45;10.45;;;;;;;;;;5090560;28;20019;-64
2021/07/12 11:27:36;;;;;;;15.93;10.77;;;;;;;;;;5094157;28;20275;-64
2021/07/12 11:30:21;;;;;;;13.65;10.52;;;;;;;;;;5111401;28;20024;-63
2021/07/12 11:32:47;;;;;;;15.73;11.13;;;;;;;;;;5107033;28;20085;-63
2021/07/12 11:35:13;;;;;;;15.38;9.68;;;;;;;;;;5112754;28;20051;-64
2021/07/12 11:37:39;;;;;;;18.30;11.65;;;;;;;;;;5111689;28;20502;-64
2021/07/12 11:40:07;;;;;;;16.60;10.60;;;;;;;;;;5094065;28;20062;-64
2021/07/12 11:42:35;;;;;;;14.48;10.57;;;;;;;;;;5110087;28;20032;-64
2021/07/12 11:45:14;;;;;;;14.77;10.75;;;;;;;;;;5111598;28;20103;-64
2021/07/12 11:47:41;;;;;;;15.82;9.27;;;;;;;;;;5111823;28;20027;-64
2021/07/12 11:50:15;;;;;;;16.27;10.57;;;;;;;;;;5110571;28;20566;-64
2021/07/12 11:52:44;;;;;;;14.63;11.00;;;;;;;;;;5089094;28;20032;-64
2021/07/12 11:55:12;;;;;;;15.15;8.40;;;;;;;;;;5111602;28;20027;-64
2021/07/12 11:57:39;;;;;;;13.48;8.88;;;;;;;;;;5092081;28;20543;-64
2021/07/12 12:00:09;;;;;;;11.45;7.40;;;;;;;;;;5092392;28;20097;-64
2021/07/12 12:02:36;;;;;;;11.35;8.70;;;;;;;;;;5089466;28;20080;-64
2021/07/12 12:05:03;;;;;;;16.05;9.68;;;;;;;;;;5092653;28;20043;-64
2021/07/12 12:07:35;;;;;;;16.52;7.78;;;;;;;;;;5093552;28;20115;-64
2021/07/12 12:10:01;;;;;;;12.63;9.40;;;;;;;;;;5111775;28;20487;-64
2021/07/12 12:12:29;;;;;;;11.98;8.65;;;;;;;;;;5092207;28;20363;-64
2021/07/12 12:14:56;;;;;;;11.75;7.40;;;;;;;;;;5110639;27;20494;-64
2021/07/12 12:17:23;;;;;;;12.63;9.45;;;;;;;;;;5093512;28;20027;-64
2021/07/12 12:20:15;;;;;;;15.15;8.80;;;;;;;;;;5111846;28;20043;-64
2021/07/12 12:22:54;;;;;;;13.32;9.07;;;;;;;;;;5104371;28;20315;-64
2021/07/12 12:25:21;;;;;;;12.52;8.52;;;;;;;;;;5118951;27;20026;-64
2021/07/12 12:27:47;;;;;;;13.73;10.38;;;;;;;;;;5119111;27;20542;-64
2021/07/12 12:30:13;;;;;;;11.48;7.68;;;;;;;;;;5111792;28;20024;-64
2021/07/12 12:32:39;;;;;;;12.90;7.68;;;;;;;;;;5108657;28;20304;-64
2021/07/12 12:35:06;;;;;;;11.27;6.88;;;;;;;;;;5092608;28;20027;-64
2021/07/12 12:37:33;;;;;;;19.25;11.02;;;;;;;;;;5110397;28;20150;-64
2021/07/12 12:40:18;;;;;;;15.38;10.73;;;;;;;;;;5110349;28;20027;-64
2021/07/12 12:42:45;;;;;;;11.05;7.70;;;;;;;;;;5107418;28;20034;-64
2021/07/12 12:45:11;;;;;;;14.45;10.80;;;;;;;;;;5092850;28;20582;-64
2021/07/12 12:47:37;;;;;;;17.48;12.23;;;;;;;;;;5111732;28;20086;-64
2021/07/12 12:50:16;;;;;;;16.48;11.98;;;;;;;;;;5111129;28;20031;-64
2021/07/12 12:52:42;;;;;;;12.73;9.35;;;;;;;;;;5089898;28;20133;-64
2021/07/12 12:55:12;;;;;;;18.38;12.75;;;;;;;;;;5110822;28;20514;-64
2021/07/12 12:57:39;;;;;;;17.40;12.52;;;;;;;;;;5110993;28;20034;-64
2021/07/12 13:00:15;;;;;;;15.85;12.00;;;;;;;;;;5111519;28;20293;-64
2021/07/12 13:02:42;;;;;;;18.27;11.38;;;;;;;;;;5088259;28;20028;-64
2021/07/12 13:05:15;;;;;;;16.05;11.95;;;;;;;;;;5109311;28;20031;-64
2021/07/12 13:07:45;;;;;;;15.68;11.68;;;;;;;;;;5109493;28;20031;-64
2021/07/12 13:10:12;;;;;;;16.25;11.38;;;;;;;;;;5108781;28;20030;-65
2021/07/12 13:12:44;;;;;;;13.15;10.60;;;;;;;;;;5107191;28;20036;-64
2021/07/12 13:15:10;;;;;;;13.93;9.82;;;;;;;;;;5105627;28;20088;-64
2021/07/12 13:17:37;;;;;;;12.52;8.13;;;;;;;;;;5110067;28;20020;-65
2021/07/12 13:20:08;;;;;;;11.02;7.57;;;;;;;;;;5107299;28;20111;-65
2021/07/12 13:22:37;;;;;;;11.10;8.30;;;;;;;;;;5108473;28;20020;-65
2021/07/12 13:25:07;;;;;;;10.35;7.43;;;;;;;;;;5115526;27;20499;-64
2021/07/12 13:27:33;;;;;;;7.88;5.65;;;;;;;;;;5080121;28;20118;-64
2021/07/12 13:30:00;;;;;;;10.82;5.95;;;;;;;;;;5091855;28;20031;-65
2021/07/12 13:32:26;;;;;;;8.23;5.50;;;;;;;;;;5108082;28;20523;-64
2021/07/12 13:34:53;;;;;;;9.23;4.82;;;;;;;;;;5108624;28;20027;-65
2021/07/12 13:37:19;;;;;;;8.98;5.05;;;;;;;;;;5110673;28;20107;-65
2021/07/12 13:39:45;;;;;;;8.90;4.72;;;;;;;;;;5110530;28;20032;-64
2021/07/12 13:42:12;;;;;;;10.55;4.60;;;;;;;;;;5110154;28;20024;-64
2021/07/12 13:44:38;;;;;;;7.57;4.35;;;;;;;;;;5106371;28;20027;-64
2021/07/12 13:47:04;;;;;;;8.27;4.38;;;;;;;;;;5106424;28;20461;-65
2021/07/12 13:49:30;;;;;;;7.63;3.97;;;;;;;;;;5108673;28;20075;-64
2021/07/12 13:51:56;;;;;;;12.40;3.92;;;;;;;;;;5107031;28;20457;-64
2021/07/12 13:54:22;;;;;;;10.40;4.20;;;;;;;;;;5106008;28;20036;-64
2021/07/12 13:56:48;;;;;;;9.63;5.25;;;;;;;;;;5107831;28;20020;-64
2021/07/12 13:59:14;;;;;;;10.18;5.55;;;;;;;;;;5108669;28;20084;-65
2021/07/12 14:01:40;;;;;;;9.70;5.43;;;;;;;;;;5088179;28;20020;-65
2021/07/12 14:04:06;;;;;;;8.07;5.55;;;;;;;;;;5106394;28;20038;-64
2021/07/12 14:06:32;;;;;;;9.48;4.50;;;;;;;;;;5109272;28;20024;-64
2021/07/12 14:08:59;;;;;;;8.65;4.38;;;;;;;;;;5108615;28;20525;-64
2021/07/12 14:11:25;;;;;;;6.03;3.10;;;;;;;;;;5109687;28;20016;-64
2021/07/12 14:13:51;;;;;;;5.15;2.53;;;;;;;;;;5103170;28;20077;-64
2021/07/12 14:16:21;;;;;;;5.68;3.28;;;;;;;;;;5112495;27;20043;-64
2021/07/12 14:18:47;;;;;;;6.35;3.40;;;;;;;;;;5114216;28;20639;-64
2021/07/12 14:21:15;;;;;;;10.02;3.90;;;;;;;;;;5113079;28;20578;-64
2021/07/12 14:23:41;;;;;;;8.55;4.97;;;;;;;;;;5111049;28;20035;-63